sensor_id;sensor_type;location;lat;lon;timestamp;P1;durP1;ratioP1;P2;durP2;ratioP2
33491;SDS011;20010;51.488;7.232;2023-05-19T00:02:20;10.82;;;9.95;;
33491;SDS011;20010;51.488;7.232;2023-05-19T00:04:47;10.55;;;9.68;;
33491;SDS011;20010;51.488;7.232;2023-05-19T00:07:16;10.80;;;9.77;;
33491;SDS011;20010;51.488;7.232;2023-05-19T00:09:44;10.77;;;9.70;;
33491;SDS011;20010;51.488;7.232;2023-05-19T00:12:11;9.85;;;9.15;;
33491;SDS011;20010;51.488;7.232;2023-05-19T00:14:39;10.00;;;9.20;;
33491;SDS011;20010;51.488;7.232;2023-05-19T00:17:05;13.63;;;10.32;;
33491;SDS011;20010;51.488;7.232;2023-05-19T00:19:33;10.90;;;9.57;;
33491;SDS011;20010;51.488;7.232;2023-05-19T00:21:59;13.32;;;9.02;;
33491;SDS011;20010;51.488;7.232;2023-05-19T00:24:26;9.50;;;8.70;;
33491;SDS011;20010;51.488;7.232;2023-05-19T00:26:53;10.02;;;9.02;;
33491;SDS011;20010;51.488;7.232;2023-05-19T00:29:19;10.32;;;9.50;;
33491;SDS011;20010;51.488;7.232;2023-05-19T00:31:46;10.18;;;9.20;;
33491;SDS011;20010;51.488;7.232;2023-05-19T00:34:12;9.95;;;9.15;;
33491;SDS011;20010;51.488;7.232;2023-05-19T00:36:39;10.77;;;9.85;;
33491;SDS011;20010;51.488;7.232;2023-05-19T00:39:06;10.88;;;9.98;;
33491;SDS011;20010;51.488;7.232;2023-05-19T00:41:32;9.70;;;9.05;;
33491;SDS011;20010;51.488;7.232;2023-05-19T00:43:59;9.90;;;9.13;;
33491;SDS011;20010;51.488;7.232;2023-05-19T00:46:26;11.32;;;10.05;;
33491;SDS011;20010;51.488;7.232;2023-05-19T00:48:52;10.98;;;10.07;;
33491;SDS011;20010;51.488;7.232;2023-05-19T00:51:19;10.40;;;9.35;;
33491;SDS011;20010;51.488;7.232;2023-05-19T00:53:45;10.73;;;9.80;;
33491;SDS011;20010;51.488;7.232;2023-05-19T00:56:14;10.38;;;9.52;;
33491;SDS011;20010;51.488;7.232;2023-05-19T00:58:42;11.15;;;10.15;;
33491;SDS011;20010;51.488;7.232;2023-05-19T01:01:09;9.45;;;8.65;;
33491;SDS011;20010;51.488;7.232;2023-05-19T01:03:42;10.60;;;9.68;;
33491;SDS011;20010;51.488;7.232;2023-05-19T01:06:09;10.40;;;9.43;;
33491;SDS011;20010;51.488;7.232;2023-05-19T01:08:37;10.45;;;9.60;;
33491;SDS011;20010;51.488;7.232;2023-05-19T01:11:04;10.10;;;9.30;;
33491;SDS011;20010;51.488;7.232;2023-05-19T01:13:32;10.82;;;9.80;;
33491;SDS011;20010;51.488;7.232;2023-05-19T01:18:46;12.10;;;10.90;;
33491;SDS011;20010;51.488;7.232;2023-05-19T01:21:35;10.43;;;9.57;;
33491;SDS011;20010;51.488;7.232;2023-05-19T01:29:54;9.98;;;9.18;;
33491;SDS011;20010;51.488;7.232;2023-05-19T01:32:42;9.70;;;8.80;;
33491;SDS011;20010;51.488;7.232;2023-05-19T01:35:10;10.63;;;9.30;;
33491;SDS011;20010;51.488;7.232;2023-05-19T01:37:38;9.70;;;8.90;;
33491;SDS011;20010;51.488;7.232;2023-05-19T01:40:06;11.35;;;10.15;;
33491;SDS011;20010;51.488;7.232;2023-05-19T01:42:33;10.52;;;9.52;;
33491;SDS011;20010;51.488;7.232;2023-05-19T01:45:03;11.75;;;10.13;;
33491;SDS011;20010;51.488;7.232;2023-05-19T01:47:33;10.88;;;9.77;;
33491;SDS011;20010;51.488;7.232;2023-05-19T01:50:04;10.75;;;9.50;;
33491;SDS011;20010;51.488;7.232;2023-05-19T01:52:31;9.57;;;8.93;;
33491;SDS011;20010;51.488;7.232;2023-05-19T01:54:58;10.57;;;9.60;;
33491;SDS011;20010;51.488;7.232;2023-05-19T02:05:17;10.95;;;10.13;;
33491;SDS011;20010;51.488;7.232;2023-05-19T02:08:08;10.45;;;9.52;;
33491;SDS011;20010;51.488;7.232;2023-05-19T02:10:40;10.73;;;9.77;;
33491;SDS011;20010;51.488;7.232;2023-05-19T02:13:09;10.13;;;9.43;;
33491;SDS011;20010;51.488;7.232;2023-05-19T02:15:38;11.82;;;10.73;;
33491;SDS011;20010;51.488;7.232;2023-05-19T02:18:08;15.23;;;11.05;;
33491;SDS011;20010;51.488;7.232;2023-05-19T02:20:37;11.10;;;10.00;;
33491;SDS011;20010;51.488;7.232;2023-05-19T02:23:04;10.95;;;9.95;;
33491;SDS011;20010;51.488;7.232;2023-05-19T02:25:31;10.65;;;9.80;;
33491;SDS011;20010;51.488;7.232;2023-05-19T02:27:58;12.50;;;10.05;;
33491;SDS011;20010;51.488;7.232;2023-05-19T02:30:24;12.43;;;10.10;;
33491;SDS011;20010;51.488;7.232;2023-05-19T02:32:51;11.38;;;10.30;;
33491;SDS011;20010;51.488;7.232;2023-05-19T02:35:19;11.18;;;9.57;;
33491;SDS011;20010;51.488;7.232;2023-05-19T02:37:46;11.52;;;10.50;;
33491;SDS011;20010;51.488;7.232;2023-05-19T02:40:13;10.73;;;9.73;;
33491;SDS011;20010;51.488;7.232;2023-05-19T02:42:39;11.43;;;10.52;;
33491;SDS011;20010;51.488;7.232;2023-05-19T02:45:06;10.43;;;9.45;;
33491;SDS011;20010;51.488;7.232;2023-05-19T02:47:33;10.25;;;9.45;;
33491;SDS011;20010;51.488;7.232;2023-05-19T02:50:02;10.55;;;9.65;;
33491;SDS011;20010;51.488;7.232;2023-05-19T02:52:30;10.77;;;9.88;;
33491;SDS011;20010;51.488;7.232;2023-05-19T02:54:57;12.02;;;10.35;;
33491;SDS011;20010;51.488;7.232;2023-05-19T02:57:23;11.43;;;10.35;;
33491;SDS011;20010;51.488;7.232;2023-05-19T02:59:50;10.52;;;9.73;;
33491;SDS011;20010;51.488;7.232;2023-05-19T03:02:17;10.35;;;9.43;;
33491;SDS011;20010;51.488;7.232;2023-05-19T03:04:43;11.30;;;10.35;;
33491;SDS011;20010;51.488;7.232;2023-05-19T03:07:10;11.02;;;10.00;;
33491;SDS011;20010;51.488;7.232;2023-05-19T03:09:39;12.85;;;9.80;;
33491;SDS011;20010;51.488;7.232;2023-05-19T03:12:06;10.90;;;10.10;;
33491;SDS011;20010;51.488;7.232;2023-05-19T03:14:33;12.90;;;11.23;;
33491;SDS011;20010;51.488;7.232;2023-05-19T03:17:00;20.63;;;11.60;;
33491;SDS011;20010;51.488;7.232;2023-05-19T03:19:26;10.38;;;9.48;;
33491;SDS011;20010;51.488;7.232;2023-05-19T03:21:53;11.27;;;10.23;;
33491;SDS011;20010;51.488;7.232;2023-05-19T03:24:21;11.15;;;9.65;;
33491;SDS011;20010;51.488;7.232;2023-05-19T03:26:48;12.32;;;9.93;;
33491;SDS011;20010;51.488;7.232;2023-05-19T03:29:14;10.63;;;9.68;;
33491;SDS011;20010;51.488;7.232;2023-05-19T03:31:43;11.15;;;10.15;;
33491;SDS011;20010;51.488;7.232;2023-05-19T03:34:10;10.82;;;9.73;;
33491;SDS011;20010;51.488;7.232;2023-05-19T03:36:37;12.27;;;11.05;;
33491;SDS011;20010;51.488;7.232;2023-05-19T03:39:05;10.68;;;9.73;;
33491;SDS011;20010;51.488;7.232;2023-05-19T03:41:32;12.00;;;10.63;;
33491;SDS011;20010;51.488;7.232;2023-05-19T03:43:58;13.75;;;11.70;;
33491;SDS011;20010;51.488;7.232;2023-05-19T03:46:25;11.27;;;10.20;;
33491;SDS011;20010;51.488;7.232;2023-05-19T03:48:52;11.75;;;10.85;;
33491;SDS011;20010;51.488;7.232;2023-05-19T03:51:18;11.00;;;9.95;;
33491;SDS011;20010;51.488;7.232;2023-05-19T03:53:45;11.00;;;9.90;;
33491;SDS011;20010;51.488;7.232;2023-05-19T03:56:13;11.13;;;10.07;;
33491;SDS011;20010;51.488;7.232;2023-05-19T03:58:42;10.65;;;9.85;;
33491;SDS011;20010;51.488;7.232;2023-05-19T04:01:10;14.65;;;10.77;;
33491;SDS011;20010;51.488;7.232;2023-05-19T04:03:37;11.70;;;10.52;;
33491;SDS011;20010;51.488;7.232;2023-05-19T04:06:03;11.18;;;10.18;;
33491;SDS011;20010;51.488;7.232;2023-05-19T04:08:30;11.63;;;10.23;;
33491;SDS011;20010;51.488;7.232;2023-05-19T04:10:57;10.70;;;9.70;;
33491;SDS011;20010;51.488;7.232;2023-05-19T04:13:24;10.48;;;9.68;;
33491;SDS011;20010;51.488;7.232;2023-05-19T04:15:50;10.27;;;9.38;;
33491;SDS011;20010;51.488;7.232;2023-05-19T04:18:17;12.18;;;10.43;;
33491;SDS011;20010;51.488;7.232;2023-05-19T04:20:44;13.82;;;10.95;;
33491;SDS011;20010;51.488;7.232;2023-05-19T04:23:11;12.60;;;10.57;;
33491;SDS011;20010;51.488;7.232;2023-05-19T04:25:37;11.10;;;10.07;;
33491;SDS011;20010;51.488;7.232;2023-05-19T04:28:06;10.77;;;9.82;;
33491;SDS011;20010;51.488;7.232;2023-05-19T04:30:32;13.93;;;12.57;;
33491;SDS011;20010;51.488;7.232;2023-05-19T04:33:01;12.75;;;11.57;;
33491;SDS011;20010;51.488;7.232;2023-05-19T04:35:31;15.02;;;12.55;;
33491;SDS011;20010;51.488;7.232;2023-05-19T04:37:58;13.23;;;11.90;;
33491;SDS011;20010;51.488;7.232;2023-05-19T04:40:25;11.75;;;10.65;;
33491;SDS011;20010;51.488;7.232;2023-05-19T04:42:51;10.93;;;9.93;;
33491;SDS011;20010;51.488;7.232;2023-05-19T04:45:19;11.18;;;10.07;;
33491;SDS011;20010;51.488;7.232;2023-05-19T04:47:45;12.60;;;11.10;;
33491;SDS011;20010;51.488;7.232;2023-05-19T04:50:13;11.10;;;10.10;;
33491;SDS011;20010;51.488;7.232;2023-05-19T04:52:41;11.00;;;9.98;;
33491;SDS011;20010;51.488;7.232;2023-05-19T04:55:11;9.93;;;9.07;;
33491;SDS011;20010;51.488;7.232;2023-05-19T04:57:41;11.60;;;9.53;;
33491;SDS011;20010;51.488;7.232;2023-05-19T05:02:38;10.23;;;9.35;;
33491;SDS011;20010;51.488;7.232;2023-05-19T05:05:06;10.65;;;9.60;;
33491;SDS011;20010;51.488;7.232;2023-05-19T05:07:34;11.10;;;9.50;;
33491;SDS011;20010;51.488;7.232;2023-05-19T05:10:01;10.20;;;9.35;;
33491;SDS011;20010;51.488;7.232;2023-05-19T05:12:29;11.10;;;9.23;;
33491;SDS011;20010;51.488;7.232;2023-05-19T05:14:56;10.30;;;9.20;;
33491;SDS011;20010;51.488;7.232;2023-05-19T05:17:23;10.55;;;9.50;;
33491;SDS011;20010;51.488;7.232;2023-05-19T05:19:51;10.60;;;9.70;;
33491;SDS011;20010;51.488;7.232;2023-05-19T05:22:18;13.88;;;10.80;;
33491;SDS011;20010;51.488;7.232;2023-05-19T05:24:45;11.35;;;10.27;;
33491;SDS011;20010;51.488;7.232;2023-05-19T05:27:11;12.50;;;11.30;;
33491;SDS011;20010;51.488;7.232;2023-05-19T05:29:38;11.27;;;9.77;;
33491;SDS011;20010;51.488;7.232;2023-05-19T05:32:05;11.00;;;9.88;;
33491;SDS011;20010;51.488;7.232;2023-05-19T05:34:33;12.85;;;11.57;;
33491;SDS011;20010;51.488;7.232;2023-05-19T05:37:00;13.93;;;11.60;;
33491;SDS011;20010;51.488;7.232;2023-05-19T05:39:27;11.05;;;10.05;;
33491;SDS011;20010;51.488;7.232;2023-05-19T05:41:54;11.18;;;10.25;;
33491;SDS011;20010;51.488;7.232;2023-05-19T05:44:20;11.30;;;10.27;;
33491;SDS011;20010;51.488;7.232;2023-05-19T05:46:47;10.82;;;9.93;;
33491;SDS011;20010;51.488;7.232;2023-05-19T05:49:14;10.73;;;9.43;;
33491;SDS011;20010;51.488;7.232;2023-05-19T05:51:42;11.68;;;9.88;;
33491;SDS011;20010;51.488;7.232;2023-05-19T05:54:29;11.68;;;10.50;;
33491;SDS011;20010;51.488;7.232;2023-05-19T05:56:56;10.52;;;9.52;;
33491;SDS011;20010;51.488;7.232;2023-05-19T05:59:23;12.43;;;9.38;;
33491;SDS011;20010;51.488;7.232;2023-05-19T06:01:50;10.15;;;9.20;;
33491;SDS011;20010;51.488;7.232;2023-05-19T06:04:16;13.27;;;9.85;;
33491;SDS011;20010;51.488;7.232;2023-05-19T06:06:43;11.30;;;10.13;;
33491;SDS011;20010;51.488;7.232;2023-05-19T06:09:09;17.13;;;8.50;;
33491;SDS011;20010;51.488;7.232;2023-05-19T06:11:37;10.05;;;8.23;;
33491;SDS011;20010;51.488;7.232;2023-05-19T06:14:04;9.80;;;8.90;;
33491;SDS011;20010;51.488;7.232;2023-05-19T06:16:30;8.98;;;8.30;;
33491;SDS011;20010;51.488;7.232;2023-05-19T06:18:57;10.32;;;9.25;;
33491;SDS011;20010;51.488;7.232;2023-05-19T06:21:24;8.88;;;8.00;;
33491;SDS011;20010;51.488;7.232;2023-05-19T06:23:51;13.00;;;9.57;;
33491;SDS011;20010;51.488;7.232;2023-05-19T06:26:17;11.48;;;9.13;;
33491;SDS011;20010;51.488;7.232;2023-05-19T06:28:44;10.10;;;8.63;;
33491;SDS011;20010;51.488;7.232;2023-05-19T06:31:10;15.35;;;9.52;;
33491;SDS011;20010;51.488;7.232;2023-05-19T06:33:37;9.43;;;8.60;;
33491;SDS011;20010;51.488;7.232;2023-05-19T06:36:04;10.10;;;9.25;;
33491;SDS011;20010;51.488;7.232;2023-05-19T06:38:30;9.80;;;8.80;;
33491;SDS011;20010;51.488;7.232;2023-05-19T06:40:57;10.60;;;9.60;;
33491;SDS011;20010;51.488;7.232;2023-05-19T06:43:24;9.73;;;8.73;;
33491;SDS011;20010;51.488;7.232;2023-05-19T06:45:51;10.27;;;9.43;;
33491;SDS011;20010;51.488;7.232;2023-05-19T06:48:17;10.10;;;9.10;;
33491;SDS011;20010;51.488;7.232;2023-05-19T06:50:44;10.25;;;9.38;;
33491;SDS011;20010;51.488;7.232;2023-05-19T06:53:11;10.30;;;8.80;;
33491;SDS011;20010;51.488;7.232;2023-05-19T06:55:37;9.25;;;8.50;;
33491;SDS011;20010;51.488;7.232;2023-05-19T06:58:23;14.25;;;9.63;;
33491;SDS011;20010;51.488;7.232;2023-05-19T07:00:50;10.20;;;9.27;;
33491;SDS011;20010;51.488;7.232;2023-05-19T07:03:16;11.00;;;8.98;;
33491;SDS011;20010;51.488;7.232;2023-05-19T07:05:43;13.88;;;8.88;;
33491;SDS011;20010;51.488;7.232;2023-05-19T07:08:10;13.02;;;9.40;;
33491;SDS011;20010;51.488;7.232;2023-05-19T07:10:37;11.13;;;8.50;;
33491;SDS011;20010;51.488;7.232;2023-05-19T07:13:03;9.73;;;8.73;;
33491;SDS011;20010;51.488;7.232;2023-05-19T07:15:30;10.93;;;8.93;;
33491;SDS011;20010;51.488;7.232;2023-05-19T07:17:57;9.10;;;8.38;;
33491;SDS011;20010;51.488;7.232;2023-05-19T07:20:24;13.23;;;9.50;;
33491;SDS011;20010;51.488;7.232;2023-05-19T07:22:50;13.38;;;8.77;;
33491;SDS011;20010;51.488;7.232;2023-05-19T07:25:17;10.68;;;8.25;;
33491;SDS011;20010;51.488;7.232;2023-05-19T07:27:43;9.00;;;8.10;;
33491;SDS011;20010;51.488;7.232;2023-05-19T07:30:11;12.05;;;8.40;;
33491;SDS011;20010;51.488;7.232;2023-05-19T07:32:37;10.65;;;8.55;;
33491;SDS011;20010;51.488;7.232;2023-05-19T07:35:04;7.80;;;7.20;;
33491;SDS011;20010;51.488;7.232;2023-05-19T07:37:31;8.55;;;7.70;;
33491;SDS011;20010;51.488;7.232;2023-05-19T07:39:58;10.10;;;8.80;;
33491;SDS011;20010;51.488;7.232;2023-05-19T07:42:25;14.02;;;8.90;;
33491;SDS011;20010;51.488;7.232;2023-05-19T07:44:51;13.23;;;8.05;;
33491;SDS011;20010;51.488;7.232;2023-05-19T07:47:18;8.43;;;7.63;;
33491;SDS011;20010;51.488;7.232;2023-05-19T07:49:44;8.35;;;7.70;;
33491;SDS011;20010;51.488;7.232;2023-05-19T07:52:11;7.65;;;7.05;;
33491;SDS011;20010;51.488;7.232;2023-05-19T07:54:38;8.18;;;7.38;;
33491;SDS011;20010;51.488;7.232;2023-05-19T07:57:04;11.43;;;8.02;;
33491;SDS011;20010;51.488;7.232;2023-05-19T07:59:31;8.02;;;7.43;;
33491;SDS011;20010;51.488;7.232;2023-05-19T08:01:58;8.07;;;7.20;;
33491;SDS011;20010;51.488;7.232;2023-05-19T08:04:26;8.48;;;7.70;;
33491;SDS011;20010;51.488;7.232;2023-05-19T08:06:53;7.65;;;6.93;;
33491;SDS011;20010;51.488;7.232;2023-05-19T08:09:20;11.10;;;7.15;;
33491;SDS011;20010;51.488;7.232;2023-05-19T08:11:46;7.90;;;7.07;;
33491;SDS011;20010;51.488;7.232;2023-05-19T08:14:13;7.25;;;6.60;;
33491;SDS011;20010;51.488;7.232;2023-05-19T08:16:40;8.32;;;7.65;;
33491;SDS011;20010;51.488;7.232;2023-05-19T08:19:11;8.68;;;7.97;;
33491;SDS011;20010;51.488;7.232;2023-05-19T08:21:37;8.25;;;7.57;;
33491;SDS011;20010;51.488;7.232;2023-05-19T08:24:04;10.93;;;7.72;;
33491;SDS011;20010;51.488;7.232;2023-05-19T08:26:31;7.68;;;6.97;;
33491;SDS011;20010;51.488;7.232;2023-05-19T08:29:01;8.57;;;7.77;;
33491;SDS011;20010;51.488;7.232;2023-05-19T08:31:28;7.70;;;6.75;;
33491;SDS011;20010;51.488;7.232;2023-05-19T08:33:54;7.65;;;6.82;;
33491;SDS011;20010;51.488;7.232;2023-05-19T08:36:21;8.38;;;7.57;;
33491;SDS011;20010;51.488;7.232;2023-05-19T08:38:50;7.55;;;6.78;;
33491;SDS011;20010;51.488;7.232;2023-05-19T08:41:16;8.35;;;7.43;;
33491;SDS011;20010;51.488;7.232;2023-05-19T08:43:43;15.18;;;6.80;;
33491;SDS011;20010;51.488;7.232;2023-05-19T08:46:11;7.35;;;6.47;;
33491;SDS011;20010;51.488;7.232;2023-05-19T08:48:41;11.98;;;6.63;;
33491;SDS011;20010;51.488;7.232;2023-05-19T08:54:12;13.43;;;7.80;;
33491;SDS011;20010;51.488;7.232;2023-05-19T08:56:42;12.93;;;7.15;;
33491;SDS011;20010;51.488;7.232;2023-05-19T08:59:13;6.93;;;6.40;;
33491;SDS011;20010;51.488;7.232;2023-05-19T09:01:43;6.80;;;6.00;;
33491;SDS011;20010;51.488;7.232;2023-05-19T09:06:38;10.18;;;6.78;;
33491;SDS011;20010;51.488;7.232;2023-05-19T09:09:07;7.32;;;6.60;;
33491;SDS011;20010;51.488;7.232;2023-05-19T09:11:34;7.65;;;7.00;;
33491;SDS011;20010;51.488;7.232;2023-05-19T09:14:05;7.35;;;6.75;;
33491;SDS011;20010;51.488;7.232;2023-05-19T09:16:32;7.35;;;6.70;;
33491;SDS011;20010;51.488;7.232;2023-05-19T09:18:59;7.60;;;6.80;;
33491;SDS011;20010;51.488;7.232;2023-05-19T09:21:29;8.35;;;7.65;;
33491;SDS011;20010;51.488;7.232;2023-05-19T09:23:57;7.90;;;7.20;;
33491;SDS011;20010;51.488;7.232;2023-05-19T09:26:37;8.18;;;6.95;;
33491;SDS011;20010;51.488;7.232;2023-05-19T09:29:16;7.57;;;6.97;;
33491;SDS011;20010;51.488;7.232;2023-05-19T09:31:53;7.25;;;6.70;;
33491;SDS011;20010;51.488;7.232;2023-05-19T09:34:26;7.22;;;6.80;;
33491;SDS011;20010;51.488;7.232;2023-05-19T09:36:53;7.63;;;6.93;;
33491;SDS011;20010;51.488;7.232;2023-05-19T09:39:20;7.47;;;6.95;;
33491;SDS011;20010;51.488;7.232;2023-05-19T09:41:54;7.32;;;6.72;;
33491;SDS011;20010;51.488;7.232;2023-05-19T09:44:24;7.47;;;6.78;;
33491;SDS011;20010;51.488;7.232;2023-05-19T09:46:55;7.20;;;6.60;;
33491;SDS011;20010;51.488;7.232;2023-05-19T09:49:23;6.93;;;6.05;;
33491;SDS011;20010;51.488;7.232;2023-05-19T09:51:58;7.28;;;6.65;;
33491;SDS011;20010;51.488;7.232;2023-05-19T09:54:25;7.40;;;6.90;;
33491;SDS011;20010;51.488;7.232;2023-05-19T09:56:58;6.80;;;6.40;;
33491;SDS011;20010;51.488;7.232;2023-05-19T09:59:25;8.82;;;7.32;;
33491;SDS011;20010;51.488;7.232;2023-05-19T10:01:57;7.57;;;6.90;;
33491;SDS011;20010;51.488;7.232;2023-05-19T10:04:26;9.35;;;6.40;;
33491;SDS011;20010;51.488;7.232;2023-05-19T10:06:56;7.00;;;6.40;;
33491;SDS011;20010;51.488;7.232;2023-05-19T10:09:31;7.38;;;6.72;;
33491;SDS011;20010;51.488;7.232;2023-05-19T10:11:59;9.20;;;7.18;;
33491;SDS011;20010;51.488;7.232;2023-05-19T10:14:26;7.63;;;6.95;;
33491;SDS011;20010;51.488;7.232;2023-05-19T10:16:55;7.32;;;6.70;;
33491;SDS011;20010;51.488;7.232;2023-05-19T10:19:26;7.40;;;6.90;;
33491;SDS011;20010;51.488;7.232;2023-05-19T10:21:54;6.90;;;6.35;;
33491;SDS011;20010;51.488;7.232;2023-05-19T10:24:21;8.20;;;6.50;;
33491;SDS011;20010;51.488;7.232;2023-05-19T10:26:55;8.25;;;7.50;;
33491;SDS011;20010;51.488;7.232;2023-05-19T10:29:36;7.00;;;6.50;;
33491;SDS011;20010;51.488;7.232;2023-05-19T10:32:15;7.25;;;6.55;;
33491;SDS011;20010;51.488;7.232;2023-05-19T10:40:40;7.45;;;6.80;;
33491;SDS011;20010;51.488;7.232;2023-05-19T10:46:04;7.57;;;7.07;;
33491;SDS011;20010;51.488;7.232;2023-05-19T10:48:32;7.45;;;6.68;;
33491;SDS011;20010;51.488;7.232;2023-05-19T10:50:59;7.00;;;6.40;;
33491;SDS011;20010;51.488;7.232;2023-05-19T10:53:30;6.95;;;6.35;;
33491;SDS011;20010;51.488;7.232;2023-05-19T11:01:33;10.00;;;7.10;;
33491;SDS011;20010;51.488;7.232;2023-05-19T11:04:07;6.88;;;6.07;;
33491;SDS011;20010;51.488;7.232;2023-05-19T11:06:37;8.18;;;7.35;;
33491;SDS011;20010;51.488;7.232;2023-05-19T11:09:15;7.57;;;6.97;;
33491;SDS011;20010;51.488;7.232;2023-05-19T11:11:46;7.40;;;6.80;;
33491;SDS011;20010;51.488;7.232;2023-05-19T11:14:17;7.75;;;7.13;;
33491;SDS011;20010;51.488;7.232;2023-05-19T11:16:49;7.82;;;6.97;;
33491;SDS011;20010;51.488;7.232;2023-05-19T11:19:26;8.60;;;7.55;;
33491;SDS011;20010;51.488;7.232;2023-05-19T11:22:08;7.00;;;6.45;;
33491;SDS011;20010;51.488;7.232;2023-05-19T11:24:43;7.03;;;6.43;;
33491;SDS011;20010;51.488;7.232;2023-05-19T11:29:48;9.67;;;6.60;;
33491;SDS011;20010;51.488;7.232;2023-05-19T11:32:16;7.03;;;6.35;;
33491;SDS011;20010;51.488;7.232;2023-05-19T11:34:43;6.65;;;6.25;;
33491;SDS011;20010;51.488;7.232;2023-05-19T11:37:11;6.63;;;5.88;;
33491;SDS011;20010;51.488;7.232;2023-05-19T11:39:38;8.45;;;6.63;;
33491;SDS011;20010;51.488;7.232;2023-05-19T11:42:05;8.15;;;7.53;;
33491;SDS011;20010;51.488;7.232;2023-05-19T11:44:34;7.28;;;6.78;;
33491;SDS011;20010;51.488;7.232;2023-05-19T11:47:00;7.18;;;6.47;;
33491;SDS011;20010;51.488;7.232;2023-05-19T11:49:27;8.13;;;7.53;;
33491;SDS011;20010;51.488;7.232;2023-05-19T11:51:55;7.28;;;6.68;;
33491;SDS011;20010;51.488;7.232;2023-05-19T11:54:27;7.03;;;6.50;;
33491;SDS011;20010;51.488;7.232;2023-05-19T11:56:55;6.78;;;6.18;;
33491;SDS011;20010;51.488;7.232;2023-05-19T11:59:28;6.60;;;6.13;;
33491;SDS011;20010;51.488;7.232;2023-05-19T12:02:02;7.68;;;7.05;;
33491;SDS011;20010;51.488;7.232;2023-05-19T12:04:42;7.32;;;6.63;;
33491;SDS011;20010;51.488;7.232;2023-05-19T12:07:11;7.13;;;6.60;;
33491;SDS011;20010;51.488;7.232;2023-05-19T12:09:39;8.40;;;6.82;;
33491;SDS011;20010;51.488;7.232;2023-05-19T12:12:05;7.70;;;6.95;;
33491;SDS011;20010;51.488;7.232;2023-05-19T12:14:32;7.15;;;6.45;;
33491;SDS011;20010;51.488;7.232;2023-05-19T12:17:08;6.95;;;6.15;;
33491;SDS011;20010;51.488;7.232;2023-05-19T12:19:36;6.28;;;5.88;;
33491;SDS011;20010;51.488;7.232;2023-05-19T12:22:02;7.35;;;6.85;;
33491;SDS011;20010;51.488;7.232;2023-05-19T12:24:32;7.75;;;6.40;;
33491;SDS011;20010;51.488;7.232;2023-05-19T12:27:04;7.30;;;6.50;;
33491;SDS011;20010;51.488;7.232;2023-05-19T12:29:47;7.15;;;6.55;;
33491;SDS011;20010;51.488;7.232;2023-05-19T12:32:19;6.93;;;6.53;;
33491;SDS011;20010;51.488;7.232;2023-05-19T12:37:18;6.72;;;6.13;;
33491;SDS011;20010;51.488;7.232;2023-05-19T12:39:44;6.90;;;6.28;;
33491;SDS011;20010;51.488;7.232;2023-05-19T12:42:11;6.60;;;6.30;;
33491;SDS011;20010;51.488;7.232;2023-05-19T12:44:41;6.32;;;5.93;;
33491;SDS011;20010;51.488;7.232;2023-05-19T12:47:12;6.88;;;6.38;;
33491;SDS011;20010;51.488;7.232;2023-05-19T12:49:53;7.97;;;7.28;;
33491;SDS011;20010;51.488;7.232;2023-05-19T12:52:26;6.75;;;6.15;;
33491;SDS011;20010;51.488;7.232;2023-05-19T12:55:00;6.88;;;6.47;;
33491;SDS011;20010;51.488;7.232;2023-05-19T12:57:27;7.00;;;6.50;;
33491;SDS011;20010;51.488;7.232;2023-05-19T13:00:31;7.00;;;6.50;;
33491;SDS011;20010;51.488;7.232;2023-05-19T13:02:57;7.90;;;7.40;;
33491;SDS011;20010;51.488;7.232;2023-05-19T13:05:36;6.72;;;6.15;;
33491;SDS011;20010;51.488;7.232;2023-05-19T13:08:14;6.70;;;6.30;;
33491;SDS011;20010;51.488;7.232;2023-05-19T13:10:43;6.22;;;5.75;;
33491;SDS011;20010;51.488;7.232;2023-05-19T13:13:11;6.20;;;5.80;;
33491;SDS011;20010;51.488;7.232;2023-05-19T13:15:42;7.10;;;6.40;;
33491;SDS011;20010;51.488;7.232;2023-05-19T13:18:10;6.57;;;6.18;;
33491;SDS011;20010;51.488;7.232;2023-05-19T13:20:39;7.35;;;6.72;;
33491;SDS011;20010;51.488;7.232;2023-05-19T13:23:08;7.35;;;6.75;;
33491;SDS011;20010;51.488;7.232;2023-05-19T13:25:36;6.80;;;6.30;;
33491;SDS011;20010;51.488;7.232;2023-05-19T13:28:03;7.38;;;6.68;;
33491;SDS011;20010;51.488;7.232;2023-05-19T13:30:31;6.88;;;6.28;;
33491;SDS011;20010;51.488;7.232;2023-05-19T13:32:59;6.97;;;6.47;;
33491;SDS011;20010;51.488;7.232;2023-05-19T13:35:26;7.88;;;7.13;;
33491;SDS011;20010;51.488;7.232;2023-05-19T13:37:53;6.63;;;6.18;;
33491;SDS011;20010;51.488;7.232;2023-05-19T13:40:19;6.88;;;6.28;;
33491;SDS011;20010;51.488;7.232;2023-05-19T13:42:46;7.07;;;6.38;;
33491;SDS011;20010;51.488;7.232;2023-05-19T13:45:13;6.40;;;5.90;;
33491;SDS011;20010;51.488;7.232;2023-05-19T13:47:39;6.40;;;6.00;;
33491;SDS011;20010;51.488;7.232;2023-05-19T13:50:06;7.63;;;7.05;;
33491;SDS011;20010;51.488;7.232;2023-05-19T13:52:33;7.03;;;6.50;;
33491;SDS011;20010;51.488;7.232;2023-05-19T13:55:00;7.03;;;6.47;;
33491;SDS011;20010;51.488;7.232;2023-05-19T13:57:26;6.40;;;5.90;;
33491;SDS011;20010;51.488;7.232;2023-05-19T13:59:53;6.60;;;6.18;;
33491;SDS011;20010;51.488;7.232;2023-05-19T14:02:29;6.75;;;6.07;;
33491;SDS011;20010;51.488;7.232;2023-05-19T14:04:56;6.40;;;5.90;;
33491;SDS011;20010;51.488;7.232;2023-05-19T14:07:22;6.40;;;6.10;;
33491;SDS011;20010;51.488;7.232;2023-05-19T14:09:51;6.38;;;6.03;;
33491;SDS011;20010;51.488;7.232;2023-05-19T14:12:18;8.20;;;7.60;;
33491;SDS011;20010;51.488;7.232;2023-05-19T14:14:50;7.07;;;6.68;;
33491;SDS011;20010;51.488;7.232;2023-05-19T14:17:17;6.95;;;6.43;;
33491;SDS011;20010;51.488;7.232;2023-05-19T14:19:44;7.10;;;6.60;;
33491;SDS011;20010;51.488;7.232;2023-05-19T14:22:10;6.68;;;6.18;;
33491;SDS011;20010;51.488;7.232;2023-05-19T14:24:38;7.75;;;7.10;;
33491;SDS011;20010;51.488;7.232;2023-05-19T14:27:05;7.22;;;6.70;;
33491;SDS011;20010;51.488;7.232;2023-05-19T14:29:31;7.25;;;6.53;;
33491;SDS011;20010;51.488;7.232;2023-05-19T14:31:58;6.85;;;6.25;;
33491;SDS011;20010;51.488;7.232;2023-05-19T14:34:25;10.43;;;6.15;;
33491;SDS011;20010;51.488;7.232;2023-05-19T14:36:51;6.72;;;6.20;;
33491;SDS011;20010;51.488;7.232;2023-05-19T14:39:18;6.70;;;6.20;;
33491;SDS011;20010;51.488;7.232;2023-05-19T14:41:45;7.93;;;7.25;;
33491;SDS011;20010;51.488;7.232;2023-05-19T14:44:12;7.18;;;6.20;;
33491;SDS011;20010;51.488;7.232;2023-05-19T14:46:38;6.50;;;6.10;;
33491;SDS011;20010;51.488;7.232;2023-05-19T14:49:06;7.38;;;6.65;;
33491;SDS011;20010;51.488;7.232;2023-05-19T14:51:32;7.18;;;6.10;;
33491;SDS011;20010;51.488;7.232;2023-05-19T14:53:59;6.72;;;6.20;;
33491;SDS011;20010;51.488;7.232;2023-05-19T14:56:27;7.20;;;6.50;;
33491;SDS011;20010;51.488;7.232;2023-05-19T14:58:54;7.03;;;6.50;;
33491;SDS011;20010;51.488;7.232;2023-05-19T15:01:21;6.78;;;6.28;;
33491;SDS011;20010;51.488;7.232;2023-05-19T15:03:48;6.60;;;6.10;;
33491;SDS011;20010;51.488;7.232;2023-05-19T15:06:15;6.32;;;5.85;;
33491;SDS011;20010;51.488;7.232;2023-05-19T15:08:41;6.85;;;6.25;;
33491;SDS011;20010;51.488;7.232;2023-05-19T15:11:08;9.38;;;6.95;;
33491;SDS011;20010;51.488;7.232;2023-05-19T15:13:35;6.53;;;6.03;;
33491;SDS011;20010;51.488;7.232;2023-05-19T15:16:01;6.75;;;6.22;;
33491;SDS011;20010;51.488;7.232;2023-05-19T15:18:42;7.15;;;6.47;;
33491;SDS011;20010;51.488;7.232;2023-05-19T15:21:09;6.90;;;6.40;;
33491;SDS011;20010;51.488;7.232;2023-05-19T15:23:36;5.82;;;5.43;;
33491;SDS011;20010;51.488;7.232;2023-05-19T15:26:02;6.20;;;5.70;;
33491;SDS011;20010;51.488;7.232;2023-05-19T15:28:29;6.78;;;5.97;;
33491;SDS011;20010;51.488;7.232;2023-05-19T15:30:56;8.30;;;6.20;;